Time;durP1;ratioP1;P1;durP2;ratioP2;P2;SDS_P1;SDS_P2;PMS_P1;PMS_P2;Temp;Humidity;BMP_temperature;BMP_pressure;BME280_temperature;BME280_humidity;BME280_pressure;Samples;Min_cycle;Max_cycle;Signal;HPM_P1;HPM_P2
2022/05/06 00:00:21;;;;;;;20.70;11.10;;;15.20;99.90;;;15.48;nan;101264.59;4951203;28;21017;-66
2022/05/06 00:02:51;;;;;;;15.37;11.17;;;15.10;99.90;;;15.47;nan;101262.94;4948516;28;21015;-67
2022/05/06 00:05:18;;;;;;;19.63;11.57;;;15.10;99.90;;;15.44;nan;101267.59;4958771;28;20628;-67
2022/05/06 00:07:45;;;;;;;15.67;10.13;;;15.00;99.90;;;15.48;nan;101266.41;4962316;28;20664;-64
2022/05/06 00:10:14;;;;;;;19.93;10.03;;;15.10;99.90;;;15.42;nan;101266.84;4949587;28;20637;-66
2022/05/06 00:12:42;;;;;;;19.70;11.43;;;15.00;99.90;;;15.39;nan;101262.69;4916496;29;20644;-66
2022/05/06 00:15:11;;;;;;;15.43;10.53;;;15.00;99.90;;;15.38;nan;101270.69;4931720;29;20629;-66
2022/05/06 00:17:38;;;;;;;20.23;10.57;;;14.90;99.90;;;15.30;nan;101271.31;4933570;29;20669;-66
2022/05/06 00:20:06;;;;;;;15.80;9.50;;;14.80;99.90;;;15.28;nan;101269.78;4955599;28;20643;-66
2022/05/06 00:22:33;;;;;;;14.03;10.30;;;14.90;99.90;;;15.28;nan;101264.53;4951949;29;20664;-66
2022/05/06 00:25:00;;;;;;;15.40;10.10;;;14.80;99.90;;;15.30;nan;101260.81;4951312;28;20699;-68
2022/05/06 00:27:27;;;;;;;13.03;8.67;;;14.90;99.90;;;15.36;nan;101268.19;4951575;28;20660;-66
2022/05/06 00:29:54;;;;;;;15.20;10.03;;;14.90;99.90;;;15.32;nan;101269.41;4951350;29;20631;-64
2022/05/06 00:32:22;;;;;;;15.67;10.13;;;14.90;99.90;;;15.31;nan;101266.91;4952713;28;21005;-66
2022/05/06 00:34:49;;;;;;;12.83;9.03;;;14.90;99.90;;;15.35;nan;101270.97;4956054;29;20692;-66
2022/05/06 00:37:16;;;;;;;13.40;8.80;;;14.90;99.90;;;15.34;nan;101270.13;4956040;28;21278;-68
2022/05/06 00:39:43;;;;;;;14.53;8.67;;;14.90;99.90;;;15.30;nan;101281.00;4956181;29;20616;-66
2022/05/06 00:42:10;;;;;;;12.67;8.93;;;14.90;99.90;;;15.41;nan;101270.44;4954480;28;20671;-66
2022/05/06 00:44:37;;;;;;;15.23;8.57;;;15.00;99.90;;;15.44;nan;101273.69;4955580;28;20632;-66
2022/05/06 00:47:05;;;;;;;14.73;8.70;;;15.10;99.90;;;15.44;nan;101278.94;4954428;28;20648;-66
2022/05/06 00:49:32;;;;;;;15.47;7.57;;;15.00;99.90;;;15.43;nan;101274.66;4937489;29;20639;-66
2022/05/06 00:51:59;;;;;;;13.33;8.27;;;15.00;99.90;;;15.43;nan;101279.91;4955922;29;20688;-66
2022/05/06 00:54:26;;;;;;;10.50;7.53;;;15.00;99.90;;;15.32;nan;101272.03;4937777;29;20639;-66
2022/05/06 00:56:54;;;;;;;10.60;7.30;;;14.90;99.90;;;15.35;nan;101281.47;4955724;28;20643;-66
2022/05/06 00:59:21;;;;;;;11.23;7.63;;;14.90;99.90;;;15.32;nan;101274.66;4953540;28;20647;-67
2022/05/06 01:01:48;;;;;;;9.90;7.03;;;14.90;99.90;;;15.34;nan;101283.25;4955166;29;20652;-66
2022/05/06 01:04:17;;;;;;;11.80;7.57;;;15.00;99.90;;;15.34;nan;101282.41;4954369;28;20635;-66
2022/05/06 01:06:45;;;;;;;12.90;7.17;;;15.00;99.90;;;15.26;nan;101279.59;4953917;28;20636;-66
2022/05/06 01:09:17;;;;;;;11.30;6.73;;;14.90;99.90;;;15.24;nan;101274.47;4961019;28;20671;-66
2022/05/06 01:11:44;;;;;;;7.50;6.00;;;14.80;99.90;;;15.23;nan;101271.94;4954153;29;20636;-66
2022/05/06 01:14:11;;;;;;;8.87;6.57;;;14.80;99.90;;;15.29;nan;101272.28;4953501;28;20643;-68
2022/05/06 01:16:38;;;;;;;9.83;6.63;;;14.90;99.90;;;15.29;nan;101268.84;4955247;29;20623;-65
2022/05/06 01:19:05;;;;;;;7.67;5.33;;;14.90;99.90;;;15.30;nan;101271.31;4954774;28;20667;-66
2022/05/06 01:21:42;;;;;;;8.23;5.90;;;14.90;99.90;;;15.29;nan;101271.47;4951926;28;20750;-66
2022/05/06 01:24:09;;;;;;;8.10;5.30;;;14.90;99.90;;;15.25;nan;101268.22;4948139;28;20744;-66
2022/05/06 01:26:55;;;;;;;7.10;5.70;;;14.90;99.90;;;15.22;nan;101271.13;4972960;28;20629;-66
2022/05/06 01:29:23;;;;;;;6.37;4.73;;;14.80;99.90;;;15.19;nan;101276.63;4973723;28;20619;-66
2022/05/06 01:31:53;;;;;;;5.87;4.83;;;14.80;99.90;;;15.22;nan;101276.38;4974355;28;21202;-66
2022/05/06 01:34:26;;;;;;;7.47;5.57;;;14.80;99.90;;;15.17;nan;101278.53;4974239;28;20634;-66
2022/05/06 01:36:57;;;;;;;10.37;5.70;;;14.80;99.90;;;15.18;nan;101277.56;4954033;28;20647;-65
2022/05/06 01:39:33;;;;;;;6.80;5.80;;;14.80;99.90;;;15.13;nan;101273.66;4962087;23;20700;-64
2022/05/06 01:42:05;;;;;;;8.60;5.80;;;14.70;99.90;;;15.15;nan;101275.19;4951971;29;20662;-64
2022/05/06 01:44:40;;;;;;;8.47;6.17;;;14.80;99.90;;;15.11;nan;101273.78;4953129;28;20992;-63
2022/05/06 01:47:18;;;;;;;8.97;6.07;;;14.80;99.90;;;15.04;nan;101274.38;4933228;29;20993;-64
2022/05/06 01:49:56;;;;;;;7.10;5.00;;;14.70;99.90;;;15.11;nan;101271.16;4951026;29;20663;-64
2022/05/06 01:52:25;;;;;;;6.77;5.23;;;14.70;99.90;;;15.07;nan;101274.16;4949942;29;20671;-63
2022/05/06 01:54:52;;;;;;;9.70;6.13;;;14.70;99.90;;;15.05;nan;101273.44;4952348;28;20640;-63
2022/05/06 01:57:18;;;;;;;7.27;6.00;;;14.70;99.90;;;14.97;nan;101274.03;4952164;29;20627;-63
2022/05/06 01:59:45;;;;;;;9.10;5.27;;;14.60;99.90;;;14.89;nan;101278.22;4953343;28;20652;-63
2022/05/06 02:02:12;;;;;;;6.70;4.27;;;14.50;99.90;;;14.86;nan;101283.75;4954790;29;20664;-63
2022/05/06 02:07:24;;;;;;;7.70;5.40;;;14.30;99.90;;;14.74;nan;101282.91;4954548;29;20711;-64
2022/05/06 02:09:51;;;;;;;12.13;6.77;;;14.30;99.90;;;14.70;nan;101287.59;4953219;28;21009;-64
2022/05/06 02:12:19;;;;;;;6.53;5.10;;;14.30;99.90;;;14.71;nan;101291.06;4963778;28;20632;-62
2022/05/06 02:14:46;;;;;;;9.30;6.37;;;14.30;99.90;;;14.60;nan;101277.91;4951037;28;20716;-58
2022/05/06 02:17:13;;;;;;;8.17;6.23;;;14.30;99.90;;;14.69;nan;101275.38;4950121;29;20656;-62
2022/05/06 02:19:42;;;;;;;9.10;5.90;;;14.30;99.90;;;14.63;nan;101273.25;4953450;29;20657;-61
2022/05/06 02:22:09;;;;;;;8.83;5.90;;;14.30;99.90;;;14.61;nan;101283.03;4952202;28;20738;-62
2022/05/06 02:24:36;;;;;;;6.47;5.20;;;14.20;99.90;;;14.57;nan;101284.25;4952417;28;20632;-62
2022/05/06 02:27:03;;;;;;;5.23;4.30;;;14.20;99.90;;;14.53;nan;101285.44;4949642;28;20640;-62
2022/05/06 02:29:30;;;;;;;7.60;5.07;;;14.20;99.90;;;14.46;nan;101294.75;4967096;28;21003;-62
2022/05/06 02:34:42;;;;;;;6.00;4.77;;;14.10;99.90;;;14.38;nan;101288.41;4952029;29;20620;-62
2022/05/06 02:37:09;;;;;;;7.03;4.60;;;14.00;99.90;;;14.29;nan;101283.91;4967573;28;20996;-62
2022/05/06 02:39:36;;;;;;;5.30;4.67;;;14.00;99.90;;;14.32;nan;101289.72;4953637;29;20664;-63
2022/05/06 02:42:04;;;;;;;7.23;5.03;;;13.90;99.90;;;14.19;nan;101291.59;4954012;28;20660;-62
2022/05/06 02:44:31;;;;;;;8.50;4.90;;;13.90;99.90;;;14.26;nan;101290.19;4953062;28;20640;-62
2022/05/06 02:46:58;;;;;;;5.77;5.17;;;13.90;99.90;;;14.25;nan;101291.13;4953891;28;20624;-62
2022/05/06 02:49:25;;;;;;;8.00;4.90;;;14.00;99.90;;;14.31;nan;101289.84;4946402;28;20664;-62
2022/05/06 02:51:52;;;;;;;5.43;4.93;;;14.00;99.90;;;14.34;nan;101292.22;4950216;28;20756;-61
2022/05/06 02:54:21;;;;;;;5.40;4.90;;;14.00;99.90;;;14.26;nan;101289.34;4946132;28;20640;-62
2022/05/06 02:56:49;;;;;;;5.50;5.00;;;14.00;99.90;;;14.24;nan;101292.09;4950515;28;20642;-62
2022/05/06 02:59:16;;;;;;;6.60;5.07;;;13.90;99.90;;;14.23;nan;101294.81;4951405;28;20667;-62
2022/05/06 03:01:44;;;;;;;4.80;4.30;;;13.90;99.90;;;14.08;nan;101288.09;4951761;28;20668;-64
2022/05/06 03:04:13;;;;;;;5.03;4.57;;;13.80;99.90;;;14.04;nan;101287.50;4951927;28;20628;-62
2022/05/06 03:06:42;;;;;;;6.30;4.57;;;13.70;99.90;;;14.01;nan;101285.94;4952120;28;21207;-62
2022/05/06 03:09:09;;;;;;;5.17;4.67;;;13.70;99.90;;;13.91;nan;101292.84;4951146;28;20668;-63
2022/05/06 03:11:36;;;;;;;10.03;5.03;;;13.60;99.90;;;13.93;nan;101287.47;4950100;28;21021;-62
2022/05/06 03:14:03;;;;;;;5.10;3.97;;;13.60;99.90;;;14.01;nan;101309.56;4945318;28;20650;-63
2022/05/06 03:16:30;;;;;;;4.73;4.13;;;13.70;99.90;;;14.02;nan;101300.75;4941864;29;20645;-63
2022/05/06 03:19:00;;;;;;;7.13;4.80;;;13.70;99.90;;;14.00;nan;101294.78;4951607;28;20664;-63
2022/05/06 03:21:27;;;;;;;6.40;4.30;;;13.70;99.90;;;14.00;nan;101289.53;4944564;29;21239;-64
2022/05/06 03:23:55;;;;;;;5.40;4.50;;;13.70;99.90;;;14.03;nan;101291.91;4951806;28;20632;-63
2022/05/06 03:26:22;;;;;;;10.43;4.70;;;13.70;99.90;;;13.97;nan;101292.38;4966750;28;21180;-64
2022/05/06 03:28:49;;;;;;;5.50;5.00;;;13.70;99.90;;;13.90;nan;101292.97;4966245;28;20656;-64
2022/05/06 03:31:18;;;;;;;6.97;4.87;;;13.60;99.90;;;13.96;nan;101288.09;4950904;29;20654;-64
2022/05/06 03:33:47;;;;;;;9.23;4.47;;;13.70;99.90;;;13.75;nan;101292.34;4945853;28;20694;-59
2022/05/06 03:36:15;;;;;;;6.93;5.00;;;13.50;99.90;;;13.88;nan;101293.06;4951008;28;21031;-63
2022/05/06 03:38:41;;;;;;;6.13;4.37;;;13.50;99.90;;;13.77;nan;101292.22;4952131;28;20707;-63
2022/05/06 03:41:08;;;;;;;3.70;3.40;;;13.40;99.90;;;13.75;nan;101294.13;4950280;28;20644;-63
2022/05/06 03:43:35;;;;;;;5.93;4.20;;;13.40;99.90;;;13.71;nan;101293.53;4952114;28;20667;-63
2022/05/06 03:46:02;;;;;;;4.50;4.07;;;13.40;99.90;;;13.70;nan;101302.31;4966249;28;21380;-63
2022/05/06 03:48:29;;;;;;;5.60;3.87;;;13.40;99.90;;;13.76;nan;101299.25;4951283;29;20683;-63
2022/05/06 03:53:42;;;;;;;5.00;4.40;;;13.30;99.90;;;13.75;nan;101294.97;4951168;29;20643;-63
2022/05/06 03:56:09;;;;;;;5.37;4.63;;;13.40;99.90;;;13.61;nan;101305.63;4950943;28;20643;-63
2022/05/06 03:58:36;;;;;;;5.30;4.00;;;13.30;99.90;;;13.62;nan;101299.44;4952216;28;20652;-64
2022/05/06 04:01:09;;;;;;;8.40;4.50;;;13.30;99.90;;;13.58;nan;101298.00;4951805;29;20624;-64
2022/05/06 04:03:38;;;;;;;4.70;4.20;;;13.30;99.90;;;13.58;nan;101308.50;4951029;28;20664;-64
2022/05/06 04:06:05;;;;;;;4.10;3.67;;;13.20;99.90;;;13.53;nan;101309.75;4952311;28;20681;-65
2022/05/06 04:08:32;;;;;;;5.40;4.43;;;13.20;99.90;;;13.52;nan;101302.84;4953752;28;20722;-63
2022/05/06 04:10:59;;;;;;;5.90;3.70;;;13.20;99.90;;;13.42;nan;101300.06;4956152;28;21076;-64
2022/05/06 04:13:27;;;;;;;4.50;4.00;;;13.10;99.90;;;13.41;nan;101301.03;4955870;28;21206;-65
2022/05/06 04:15:54;;;;;;;4.27;3.83;;;13.00;99.90;;;13.43;nan;101311.38;4955556;28;20644;-64
2022/05/06 04:18:21;;;;;;;5.03;3.87;;;13.10;99.90;;;13.41;nan;101315.91;4954414;29;20734;-64
2022/05/06 04:23:35;;;;;;;4.57;3.83;;;13.10;99.90;;;13.49;nan;101318.78;4954162;29;20679;-64
2022/05/06 04:26:11;;;;;;;4.03;3.60;;;13.10;99.90;;;13.46;nan;101327.72;4969168;28;20679;-64
2022/05/06 04:28:40;;;;;;;5.90;3.33;;;13.10;99.90;;;13.44;nan;101326.19;4952799;28;20687;-61
2022/05/06 04:31:07;;;;;;;4.70;3.83;;;13.10;99.90;;;13.49;nan;101326.66;4969956;28;20867;-64
2022/05/06 04:33:39;;;;;;;7.73;4.00;;;13.20;99.90;;;13.51;nan;101330.00;4953461;28;20642;-64
2022/05/06 04:36:06;;;;;;;7.60;3.63;;;13.10;99.90;;;13.46;nan;101332.16;4969443;28;20642;-64
2022/05/06 04:38:33;;;;;;;4.20;3.80;;;13.10;99.90;;;13.40;nan;101325.53;4946067;28;20788;-63
2022/05/06 04:41:01;;;;;;;4.20;3.80;;;13.10;99.90;;;13.41;nan;101329.84;4955055;28;20636;-64
2022/05/06 04:43:29;;;;;;;5.40;3.87;;;13.00;99.90;;;13.42;nan;101334.13;4953046;28;20684;-64
2022/05/06 04:45:56;;;;;;;4.00;3.60;;;13.10;99.90;;;13.41;nan;101332.47;4955695;28;20707;-64
2022/05/06 04:48:24;;;;;;;5.37;3.63;;;13.10;99.90;;;13.37;nan;101345.91;4955210;28;20685;-64
2022/05/06 04:50:51;;;;;;;3.57;3.30;;;13.00;99.90;;;13.44;nan;101345.34;4954361;28;20636;-64
2022/05/06 04:53:18;;;;;;;3.90;3.60;;;13.10;99.90;;;13.45;nan;101340.94;4954012;29;20643;-64
2022/05/06 04:55:48;;;;;;;7.83;3.97;;;13.10;99.90;;;13.52;nan;101340.38;4953058;28;20643;-63
2022/05/06 04:58:17;;;;;;;4.33;3.93;;;13.20;99.90;;;13.48;nan;101343.34;4954351;28;20664;-64
2022/05/06 05:00:44;;;;;;;5.13;3.53;;;13.10;99.90;;;13.45;nan;101354.06;4953395;28;21006;-63
2022/05/06 05:03:11;;;;;;;4.37;3.60;;;13.10;99.90;;;13.49;nan;101364.22;4952677;29;21333;-63
2022/05/06 05:05:39;;;;;;;9.70;4.23;;;13.10;99.90;;;13.49;nan;101356.34;4952897;28;21191;-63
2022/05/06 05:08:08;;;;;;;4.00;3.50;;;13.10;99.90;;;13.48;nan;101359.91;4947532;28;20657;-63
2022/05/06 05:10:35;;;;;;;4.30;3.90;;;13.10;99.90;;;13.48;nan;101369.56;4952848;29;20624;-63
2022/05/06 05:13:02;;;;;;;5.50;4.13;;;13.10;99.90;;;13.48;nan;101362.53;4953956;28;20991;-63
2022/05/06 05:15:30;;;;;;;5.27;3.53;;;13.10;99.90;;;13.57;nan;101361.88;4953857;28;20647;-64
2022/05/06 05:17:57;;;;;;;8.30;3.50;;;13.20;99.90;;;13.55;nan;101361.13;4954190;28;20664;-63
2022/05/06 05:20:24;;;;;;;6.87;3.93;;;13.20;99.90;;;13.56;nan;101360.22;4953293;28;20634;-64
2022/05/06 05:22:51;;;;;;;6.17;3.47;;;13.20;99.90;;;13.54;nan;101353.38;4953088;28;20672;-64
2022/05/06 05:25:18;;;;;;;5.97;4.03;;;13.20;99.90;;;13.56;nan;101364.59;4953736;28;20635;-64
2022/05/06 05:27:45;;;;;;;5.70;4.07;;;13.20;99.90;;;13.50;nan;101375.53;4953069;28;21266;-63
2022/05/06 05:30:13;;;;;;;4.23;3.53;;;13.10;99.90;;;13.54;nan;101374.38;4952310;29;20628;-63
2022/05/06 05:32:40;;;;;;;6.20;4.10;;;13.20;99.90;;;13.54;nan;101369.97;4953689;28;20628;-63
2022/05/06 05:35:08;;;;;;;7.40;4.90;;;13.20;99.90;;;13.61;nan;101376.41;4953230;28;21031;-63
2022/05/06 05:37:35;;;;;;;5.93;4.47;;;13.30;99.90;;;13.66;nan;101374.31;4952889;28;20639;-63
2022/05/06 05:40:05;;;;;;;9.10;4.67;;;13.30;99.90;;;13.72;nan;101373.84;4953753;28;20648;-64
2022/05/06 05:42:32;;;;;;;7.43;3.97;;;13.40;99.90;;;13.72;nan;101370.38;4953784;28;20668;-63
2022/05/06 05:50:30;;;;;;;4.50;4.07;;;13.40;99.90;;;13.74;nan;101378.97;4953862;29;20636;-63
2022/05/06 05:52:58;;;;;;;3.43;3.03;;;13.40;99.90;;;13.88;nan;101382.25;4952434;28;20640;-63
2022/05/06 05:55:25;;;;;;;5.50;3.87;;;13.60;99.90;;;13.99;nan;101382.31;4953357;28;20620;-63
2022/05/06 05:57:52;;;;;;;4.87;3.73;;;13.70;99.90;;;14.23;nan;101382.25;4952625;28;20644;-64
2022/05/06 06:00:19;;;;;;;4.10;3.73;;;14.00;99.90;;;14.48;nan;101378.66;4953110;28;21402;-64
2022/05/06 06:02:46;;;;;;;5.80;4.10;;;14.20;99.90;;;15.11;nan;101375.44;4947879;28;20668;-64
2022/05/06 06:05:13;;;;;;;3.70;3.40;;;14.80;99.90;;;16.22;nan;101392.59;4952498;29;20710;-64
2022/05/06 06:07:40;;;;;;;3.60;3.30;;;16.00;99.90;;;17.27;nan;101389.63;4967606;28;20646;-63
2022/05/06 06:10:08;;;;;;;3.97;3.67;;;17.10;99.90;;;18.32;nan;101395.00;4952518;28;20620;-63
2022/05/06 06:12:35;;;;;;;4.07;3.67;;;18.30;97.50;;;18.98;nan;101405.56;4952671;28;20636;-63
2022/05/06 06:15:02;;;;;;;4.43;4.03;;;19.00;95.30;;;19.86;nan;101396.00;4953702;28;20999;-64
2022/05/06 06:17:30;;;;;;;3.53;3.20;;;19.80;92.80;;;20.77;nan;101400.03;4950869;29;20628;-64
2022/05/06 06:19:57;;;;;;;6.85;3.85;;;20.70;90.70;;;20.76;nan;101401.03;4950305;28;24453;-64
2022/05/06 06:22:25;;;;;;;4.70;4.07;;;20.70;89.00;;;21.59;nan;101395.72;4941247;29;24477;-64
2022/05/06 06:24:52;;;;;;;4.30;3.90;;;21.80;83.20;;;22.27;nan;101404.28;4945499;29;20647;-63
2022/05/06 06:27:19;;;;;;;4.53;4.13;;;22.20;80.70;;;23.12;nan;101406.28;4967421;28;20628;-64
2022/05/06 06:29:49;;;;;;;4.30;3.90;;;23.10;76.30;;;24.54;nan;101410.13;4948151;28;24461;-64
2022/05/06 06:32:16;;;;;;;3.70;3.13;;;24.40;71.90;;;25.27;nan;101404.81;4948094;28;20201;-65
2022/05/06 06:34:43;;;;;;;3.43;3.23;;;25.20;67.30;;;26.57;nan;101410.66;4945305;28;20691;-64
2022/05/06 06:37:12;;;;;;;3.97;3.67;;;26.50;62.50;;;27.09;nan;101404.00;4952758;28;20608;-64
2022/05/06 06:39:39;;;;;;;5.93;3.90;;;27.30;58.60;;;27.52;nan;101397.38;4950622;28;20752;-63
2022/05/06 06:42:06;;;;;;;4.93;4.13;;;27.50;56.80;;;27.62;nan;101400.50;4952556;29;20632;-62
2022/05/06 06:44:33;;;;;;;4.97;3.80;;;27.60;55.30;;;28.67;nan;101400.53;4951564;29;20683;-64
2022/05/06 06:47:00;;;;;;;5.00;3.93;;;28.60;54.30;;;29.85;nan;101414.38;4952548;28;21027;-64
2022/05/06 06:49:27;;;;;;;3.27;2.97;;;29.70;52.30;;;30.90;nan;101408.09;4948571;28;20668;-65
2022/05/06 06:51:54;;;;;;;4.40;3.70;;;30.70;50.60;;;31.54;nan;101413.69;4949534;29;20640;-64
2022/05/06 06:54:21;;;;;;;4.50;4.10;;;31.40;48.60;;;32.22;nan;101407.91;4942694;28;20644;-64
2022/05/06 06:56:48;;;;;;;3.37;3.07;;;32.00;47.80;;;32.77;nan;101412.75;4962658;28;20660;-64
2022/05/06 06:59:15;;;;;;;4.23;3.60;;;32.60;46.10;;;33.19;nan;101407.13;4943915;29;20663;-64
2022/05/06 07:01:42;;;;;;;3.70;3.37;;;33.20;45.30;;;33.02;nan;101412.47;4952240;29;20619;-60
2022/05/06 07:04:09;;;;;;;4.60;3.73;;;33.00;44.50;;;33.10;nan;101403.16;4943305;29;20672;-64
2022/05/06 07:12:08;;;;;;;4.40;4.10;;;33.10;43.30;;;32.97;nan;101404.22;4950918;28;20690;-63
2022/05/06 07:14:36;;;;;;;3.60;3.40;;;33.10;43.30;;;32.80;nan;101400.63;4949297;29;20667;-63
2022/05/06 07:17:07;;;;;;;4.67;4.20;;;32.80;43.40;;;32.03;nan;101394.50;4951472;28;20632;-63
2022/05/06 07:19:34;;;;;;;4.93;4.50;;;32.10;44.00;;;30.73;nan;101404.31;4942617;29;20679;-63
2022/05/06 07:22:01;;;;;;;5.43;4.53;;;31.40;44.00;;;31.25;nan;101399.13;4952537;29;20647;-63
2022/05/06 07:24:28;;;;;;;4.53;4.10;;;31.20;45.00;;;31.70;nan;101407.66;4952846;29;21016;-62
2022/05/06 07:26:56;;;;;;;5.70;4.50;;;31.60;44.60;;;31.76;nan;101411.31;4951413;28;20628;-63
2022/05/06 07:29:24;;;;;;;4.47;4.07;;;31.70;44.10;;;31.48;nan;101413.81;4944445;29;20659;-63
2022/05/06 07:31:51;;;;;;;10.07;4.13;;;31.60;44.00;;;31.95;nan;101410.22;4951002;28;20699;-63
2022/05/06 07:34:18;;;;;;;4.57;4.20;;;31.80;44.20;;;32.30;nan;101408.38;4949329;28;20652;-63
2022/05/06 07:36:45;;;;;;;7.47;4.60;;;32.20;44.10;;;32.87;nan;101406.72;4958414;28;20647;-63
2022/05/06 07:39:14;;;;;;;4.70;4.30;;;32.80;43.30;;;32.39;nan;101406.16;4949594;29;20679;-63
2022/05/06 07:41:41;;;;;;;4.53;4.23;;;32.50;43.80;;;32.07;nan;101403.78;4946570;29;20632;-63
2022/05/06 07:44:09;;;;;;;6.90;4.97;;;32.20;43.60;;;30.89;nan;101407.25;4943653;29;20675;-63
2022/05/06 07:46:36;;;;;;;4.10;3.73;;;31.00;44.40;;;30.80;nan;101408.56;4955783;28;20632;-63
2022/05/06 07:49:05;;;;;;;5.00;4.50;;;30.50;45.60;;;31.59;nan;101407.63;4962085;28;20729;-63
2022/05/06 07:51:33;;;;;;;5.00;4.53;;;31.30;44.70;;;31.31;nan;101400.09;4954395;28;20647;-63
2022/05/06 07:54:00;;;;;;;6.57;5.63;;;31.40;44.30;;;31.65;nan;101410.22;4949814;28;20644;-63
2022/05/06 07:56:31;;;;;;;5.27;4.73;;;31.60;44.40;;;31.40;nan;101406.84;4953886;28;21254;-64
2022/05/06 07:58:58;;;;;;;6.10;4.60;;;31.50;44.30;;;32.80;nan;101408.72;4955107;28;20647;-64
2022/05/06 08:06:56;;;;;;;7.60;4.73;;;34.80;41.40;;;35.08;nan;101410.59;4955256;29;20691;-64
2022/05/06 08:09:24;;;;;;;5.73;5.00;;;35.30;41.10;;;34.45;nan;101412.94;4955597;28;20667;-64
2022/05/06 08:11:51;;;;;;;5.70;4.47;;;35.00;40.50;;;35.58;nan;101415.78;4954047;28;20623;-63
2022/05/06 08:14:19;;;;;;;5.17;4.60;;;35.90;40.10;;;36.32;nan;101414.00;4954066;28;20644;-63
2022/05/06 08:16:48;;;;;;;4.70;4.40;;;36.60;40.10;;;36.75;nan;101422.97;4955974;28;20632;-64
2022/05/06 08:19:16;;;;;;;9.80;5.27;;;37.10;38.90;;;35.71;nan;101417.25;4955035;28;20644;-63
2022/05/06 08:21:48;;;;;;;4.80;4.50;;;36.20;39.20;;;35.25;nan;101410.50;4952662;29;20640;-64
2022/05/06 08:24:15;;;;;;;4.93;4.50;;;35.70;39.20;;;35.57;nan;101418.75;4953853;29;20684;-63
2022/05/06 08:26:43;;;;;;;5.50;5.00;;;36.20;38.90;;;36.38;nan;101406.66;4955139;28;20612;-63
2022/05/06 08:29:10;;;;;;;5.20;4.70;;;36.60;39.00;;;36.99;nan;101407.88;4953885;28;20664;-63
2022/05/06 08:31:40;;;;;;;6.57;5.03;;;37.20;38.60;;;37.55;nan;101417.84;4956525;29;20615;-63
2022/05/06 08:34:12;;;;;;;4.70;4.40;;;37.90;38.10;;;38.49;nan;101411.88;4953859;29;20623;-63
2022/05/06 08:36:45;;;;;;;5.00;4.30;;;38.90;37.70;;;39.19;nan;101414.38;4956263;28;20701;-63
2022/05/06 08:39:13;;;;;;;5.27;4.87;;;39.60;36.60;;;39.08;nan;101410.03;4938620;29;20782;-64
2022/05/06 08:41:41;;;;;;;4.47;4.13;;;39.40;36.90;;;38.70;nan;101405.28;4954902;29;20635;-64
2022/05/06 08:52:37;;;;;;;4.90;4.50;;;41.00;35.50;;;40.86;nan;101409.16;4955269;28;20627;-64
2022/05/06 08:55:06;;;;;;;4.10;3.80;;;41.30;34.80;;;41.87;nan;101407.69;4954320;28;20715;-63
2022/05/06 08:57:35;;;;;;;3.57;3.23;;;42.10;34.30;;;40.48;nan;101412.88;4954721;28;20641;-63
2022/05/06 09:00:09;;;;;;;9.73;4.10;;;41.20;34.20;;;41.40;nan;101419.66;4968548;28;21191;-64
2022/05/06 09:02:39;;;;;;;4.03;3.73;;;41.60;34.30;;;41.64;nan;101419.56;4954268;28;20643;-63
2022/05/06 09:05:17;;;;;;;4.20;2.87;;;41.80;34.00;;;42.26;nan;101410.88;4953290;29;20679;-64
2022/05/06 09:08:02;;;;;;;4.60;3.47;;;42.50;33.50;;;43.05;nan;101411.50;4933402;29;20994;-63
2022/05/06 09:10:30;;;;;;;5.27;3.20;;;43.30;33.30;;;42.48;nan;101410.22;4948044;29;20628;-63
2022/05/06 09:13:02;;;;;;;3.97;3.77;;;43.40;32.70;;;43.63;nan;101412.38;4969683;28;20616;-64
2022/05/06 09:18:23;;;;;;;3.43;3.30;;;44.10;32.10;;;44.44;nan;101402.06;4966592;28;20666;-64
2022/05/06 09:21:13;;;;;;;3.63;3.17;;;44.70;32.20;;;42.96;nan;101402.38;4955129;28;20626;-65
2022/05/06 09:23:40;;;;;;;3.30;3.00;;;44.10;31.90;;;43.53;nan;101396.13;4953491;28;20664;-63
2022/05/06 09:26:18;;;;;;;2.40;2.30;;;44.00;31.80;;;43.64;nan;101399.50;4968264;28;20608;-64
2022/05/06 09:28:45;;;;;;;4.10;2.50;;;43.90;30.90;;;43.44;nan;101395.25;4953205;28;20667;-64
2022/05/06 09:31:12;;;;;;;2.27;2.17;;;43.80;31.60;;;42.21;nan;101397.25;4954191;28;20624;-64
2022/05/06 09:33:41;;;;;;;2.60;2.40;;;42.80;31.20;;;42.32;nan;101382.22;4953524;28;20907;-64
2022/05/06 09:36:31;;;;;;;2.33;2.07;;;42.60;31.50;;;41.87;nan;101390.47;4953947;28;20770;-64
2022/05/06 09:39:06;;;;;;;2.60;2.50;;;42.30;31.30;;;41.21;nan;101377.72;4953653;28;21053;-64
2022/05/06 09:41:36;;;;;;;3.77;2.30;;;41.80;31.20;;;41.61;nan;101387.31;4953390;28;20639;-64
2022/05/06 09:44:08;;;;;;;2.23;2.13;;;41.90;30.80;;;40.58;nan;101384.56;4968915;28;20672;-64
2022/05/06 09:46:36;;;;;;;2.33;2.23;;;41.10;31.30;;;41.44;nan;101385.09;4951447;28;21195;-64
2022/05/06 09:49:05;;;;;;;2.80;2.70;;;41.70;31.40;;;40.01;nan;101394.47;4951413;29;20726;-63
2022/05/06 09:51:49;;;;;;;2.57;2.37;;;40.60;31.50;;;40.56;nan;101387.63;4952820;28;20640;-62
2022/05/06 09:54:32;;;;;;;2.43;2.30;;;41.20;31.40;;;41.90;nan;101379.69;4953378;29;20644;-63
2022/05/06 09:57:02;;;;;;;2.40;2.40;;;42.30;31.80;;;40.14;nan;101391.06;4939140;29;20655;-63
2022/05/06 09:59:31;;;;;;;2.40;2.30;;;41.20;31.20;;;41.38;nan;101388.22;4954363;28;20651;-64
2022/05/06 10:01:58;;;;;;;2.73;2.17;;;41.80;31.10;;;40.64;nan;101378.75;4953412;28;20644;-64
2022/05/06 10:04:28;;;;;;;2.10;2.00;;;41.20;31.40;;;40.13;nan;101383.94;4967666;28;20679;-63
2022/05/06 10:07:03;;;;;;;2.43;2.30;;;40.70;31.80;;;40.51;nan;101374.00;4968064;28;20631;-63
2022/05/06 10:09:41;;;;;;;3.00;2.80;;;40.80;32.00;;;39.10;nan;101379.75;4954110;28;20662;-63
2022/05/06 10:12:12;;;;;;;2.60;2.40;;;39.90;32.40;;;37.39;nan;101369.94;4953679;28;20650;-63
2022/05/06 10:14:40;;;;;;;2.07;1.40;;;38.40;33.10;;;36.48;nan;101379.59;4968123;28;20635;-64
2022/05/06 10:17:09;;;;;;;2.20;2.00;;;37.30;32.40;;;35.50;nan;101363.84;4967535;28;20628;-63
2022/05/06 10:19:36;;;;;;;2.67;1.50;;;36.20;33.10;;;35.09;nan;101368.84;4950239;29;20668;-63
2022/05/06 10:22:05;;;;;;;4.57;2.07;;;35.10;33.10;;;34.01;nan;101362.41;4966536;28;20650;-64
2022/05/06 10:24:52;;;;;;;1.97;1.87;;;34.00;34.40;;;32.25;nan;101359.66;4950816;29;20668;-64
2022/05/06 10:33:21;;;;;;;1.83;1.73;;;28.50;38.00;;;27.71;nan;101339.47;4933761;28;20624;-63
2022/05/06 10:35:48;;;;;;;1.90;1.70;;;27.40;40.50;;;27.25;nan;101348.19;4938323;29;20645;-64
2022/05/06 10:38:46;;;;;;;1.80;1.70;;;26.50;40.80;;;26.84;nan;101342.06;4933560;29;20679;-64
2022/05/06 10:41:22;;;;;;;1.67;1.60;;;26.10;39.30;;;26.49;nan;101348.44;4950817;29;20640;-64
2022/05/06 10:43:50;;;;;;;1.93;1.80;;;25.80;40.40;;;26.32;nan;101352.44;4952456;28;20664;-64
2022/05/06 10:46:32;;;;;;;1.77;1.43;;;25.70;41.30;;;25.98;nan;101345.16;4951694;29;20651;-65
2022/05/06 10:49:39;;;;;;;1.67;1.60;;;25.40;40.70;;;25.98;nan;101339.81;4953210;28;21274;-65
2022/05/06 10:54:55;;;;;;;1.87;1.77;;;25.20;41.20;;;25.31;nan;101337.50;4944767;29;20643;-62
2022/05/06 10:57:24;;;;;;;2.33;2.20;;;24.80;42.50;;;25.04;nan;101338.22;4947473;29;20650;-64
2022/05/06 10:59:56;;;;;;;3.00;1.37;;;24.50;41.70;;;24.67;nan;101344.47;4950283;28;20707;-65
2022/05/06 11:02:32;;;;;;;1.43;1.43;;;24.10;41.90;;;24.61;nan;101344.38;4949500;29;20629;-65
2022/05/06 11:05:03;;;;;;;1.60;1.50;;;24.00;42.10;;;24.43;nan;101336.72;4953172;28;20660;-65
2022/05/06 11:07:33;;;;;;;2.40;2.20;;;23.80;43.90;;;24.26;nan;101334.41;4953505;28;21180;-65
2022/05/06 11:10:09;;;;;;;3.40;1.70;;;23.70;43.50;;;24.35;nan;101333.31;4952765;28;20667;-65
2022/05/06 11:12:52;;;;;;;1.87;1.80;;;23.80;43.40;;;24.16;nan;101332.00;4967487;28;20673;-65
2022/05/06 11:15:29;;;;;;;2.10;1.87;;;23.70;43.40;;;24.01;nan;101325.78;4951274;29;21211;-65
2022/05/06 11:18:01;;;;;;;1.17;1.17;;;23.50;43.70;;;24.10;nan;101330.06;4951298;28;20643;-63
2022/05/06 11:20:35;;;;;;;25.73;12.07;;;23.50;43.00;;;24.08;nan;101337.44;4952820;28;21051;-63